Time;durP1;ratioP1;P1;durP2;ratioP2;P2;SDS_P1;SDS_P2;PMS_P1;PMS_P2;Temp;Humidity;BMP_temperature;BMP_pressure;BME280_temperature;BME280_humidity;BME280_pressure;Samples;Min_cycle;Max_cycle;Signal;HPM_P1;HPM_P2
2022/11/30 00:00:36;;;;;;;23.92;16.45;;;13.40;96.40;;;;;;5052766;28;20104;-70
2022/11/30 00:03:02;;;;;;;24.67;17.08;;;13.30;96.40;;;;;;5052267;28;20026;-72
2022/11/30 00:05:28;;;;;;;24.02;16.35;;;13.30;96.30;;;;;;5052579;28;20036;-71
2022/11/30 00:07:53;;;;;;;25.13;17.17;;;13.30;96.40;;;;;;5052589;28;20694;-71
2022/11/30 00:10:20;;;;;;;23.38;17.63;;;13.30;96.40;;;;;;5052321;28;20036;-70
2022/11/30 00:12:46;;;;;;;23.65;16.38;;;13.30;96.30;;;;;;5052652;28;20033;-70
2022/11/30 00:15:13;;;;;;;23.63;17.60;;;13.30;96.40;;;;;;5052242;28;20535;-72
2022/11/30 00:17:40;;;;;;;22.33;16.77;;;13.30;96.20;;;;;;5052202;28;20047;-70
2022/11/30 00:20:06;;;;;;;19.70;15.48;;;13.20;96.40;;;;;;5052437;28;20472;-71
2022/11/30 00:22:32;;;;;;;22.38;16.20;;;13.20;96.10;;;;;;5052165;28;20029;-71
2022/11/30 00:24:59;;;;;;;20.80;16.60;;;13.20;96.10;;;;;;5052444;28;20067;-71
2022/11/30 00:27:28;;;;;;;22.92;17.08;;;13.30;96.20;;;;;;5055469;28;20033;-70
2022/11/30 00:29:53;;;;;;;20.10;15.40;;;13.20;96.10;;;;;;5055421;28;20032;-70
2022/11/30 00:32:19;;;;;;;21.00;15.88;;;13.20;96.10;;;;;;5055883;28;20042;-72
2022/11/30 00:34:44;;;;;;;19.92;15.25;;;13.20;96.30;;;;;;5055694;28;20378;-72
2022/11/30 00:37:10;;;;;;;20.63;15.85;;;13.20;96.30;;;;;;5054774;28;20036;-70
2022/11/30 00:39:35;;;;;;;25.10;16.52;;;13.10;96.00;;;;;;5054843;28;20025;-70
2022/11/30 00:42:01;;;;;;;23.08;17.38;;;13.20;96.20;;;;;;5055988;28;20044;-71
2022/11/30 00:44:27;;;;;;;22.02;17.13;;;13.20;96.20;;;;;;5055807;28;20394;-70
2022/11/30 00:46:52;;;;;;;20.55;16.55;;;13.10;96.30;;;;;;5055820;28;20450;-69
2022/11/30 00:49:18;;;;;;;20.70;16.33;;;13.00;96.20;;;;;;5055770;28;20048;-71
2022/11/30 00:51:43;;;;;;;23.00;16.27;;;13.20;96.30;;;;;;5055836;28;20048;-71
2022/11/30 00:54:09;;;;;;;20.70;16.25;;;13.10;96.00;;;;;;5055655;28;20079;-71
2022/11/30 00:56:35;;;;;;;19.83;15.70;;;13.20;96.10;;;;;;5054307;28;20020;-71
2022/11/30 00:59:00;;;;;;;21.20;16.73;;;13.20;96.00;;;;;;5055604;28;20029;-71
2022/11/30 01:01:26;;;;;;;23.45;16.20;;;13.20;96.10;;;;;;5055011;28;20056;-71
2022/11/30 01:03:52;;;;;;;21.02;15.80;;;13.20;96.10;;;;;;5055602;28;20068;-73
2022/11/30 01:06:18;;;;;;;20.63;14.90;;;13.10;96.00;;;;;;5055318;28;20072;-71
2022/11/30 01:08:43;;;;;;;21.65;16.08;;;13.10;96.10;;;;;;5054869;28;20458;-70
2022/11/30 01:11:16;;;;;;;19.38;15.63;;;13.10;96.30;;;;;;5055064;28;20489;-71
2022/11/30 01:13:42;;;;;;;19.85;15.10;;;13.20;96.20;;;;;;5055352;28;20022;-71
2022/11/30 01:16:15;;;;;;;19.50;15.80;;;13.20;96.10;;;;;;5055101;28;20063;-71
2022/11/30 01:18:42;;;;;;;18.27;14.85;;;13.20;96.30;;;;;;5055192;28;20040;-71
2022/11/30 01:21:12;;;;;;;18.27;14.43;;;13.20;96.20;;;;;;5055101;28;20071;-71
2022/11/30 01:23:38;;;;;;;20.20;15.20;;;13.20;96.20;;;;;;5055067;28;20467;-74
2022/11/30 01:26:04;;;;;;;18.95;14.70;;;13.20;96.10;;;;;;5055276;28;20033;-71
2022/11/30 01:28:29;;;;;;;20.38;15.05;;;13.20;96.20;;;;;;5055136;28;20056;-74
2022/11/30 01:31:03;;;;;;;20.25;15.00;;;13.10;95.90;;;;;;5054389;28;20162;-73
2022/11/30 01:33:28;;;;;;;20.05;15.98;;;13.10;96.10;;;;;;5058234;28;20029;-73
2022/11/30 01:36:06;;;;;;;21.02;15.95;;;13.20;96.10;;;;;;5074586;28;20025;-73
2022/11/30 01:38:41;;;;;;;19.52;14.40;;;13.10;96.20;;;;;;5072517;28;20035;-74
2022/11/30 01:41:08;;;;;;;23.45;16.08;;;13.10;96.10;;;;;;5074638;28;20020;-69
2022/11/30 01:43:36;;;;;;;25.10;16.20;;;13.10;96.00;;;;;;5074868;28;20021;-74
2022/11/30 01:46:02;;;;;;;20.98;15.73;;;13.10;96.20;;;;;;5074304;28;20028;-70
2022/11/30 01:48:28;;;;;;;22.83;15.35;;;13.10;96.10;;;;;;5074746;28;20093;-74
2022/11/30 01:50:55;;;;;;;24.98;16.38;;;13.10;96.00;;;;;;5074302;28;20017;-72
2022/11/30 01:53:22;;;;;;;23.23;16.48;;;13.10;96.00;;;;;;5074636;28;20033;-71
2022/11/30 01:55:48;;;;;;;25.23;16.15;;;13.10;96.00;;;;;;5074345;28;20023;-73
2022/11/30 01:58:24;;;;;;;24.67;15.93;;;13.10;96.10;;;;;;5074195;28;20047;-71
2022/11/30 02:00:50;;;;;;;27.05;17.30;;;13.00;96.00;;;;;;5074522;28;20027;-70
2022/11/30 02:03:29;;;;;;;26.85;16.88;;;13.10;96.00;;;;;;5074409;28;20473;-73
2022/11/30 02:05:55;;;;;;;28.27;18.33;;;13.10;95.90;;;;;;5074441;28;20021;-71
2022/11/30 02:08:21;;;;;;;25.35;17.70;;;13.00;95.80;;;;;;5074314;28;20036;-70
2022/11/30 02:10:52;;;;;;;27.00;18.00;;;13.10;95.80;;;;;;5074097;28;20103;-71
2022/11/30 02:13:44;;;;;;;28.42;17.85;;;13.00;95.90;;;;;;5073883;28;20492;-70
2022/11/30 02:16:40;;;;;;;28.23;18.10;;;13.00;95.80;;;;;;5074188;28;20469;-70
2022/11/30 02:19:14;;;;;;;29.77;17.95;;;13.10;95.80;;;;;;5072846;28;20064;-70
2022/11/30 02:22:03;;;;;;;27.00;17.05;;;13.00;95.80;;;;;;5073929;28;20039;-70
2022/11/30 02:25:05;;;;;;;24.30;16.15;;;13.00;96.00;;;;;;5073946;28;20024;-70
2022/11/30 02:27:42;;;;;;;32.67;19.35;;;13.00;95.90;;;;;;5073432;28;20043;-70
2022/11/30 02:30:14;;;;;;;28.50;17.02;;;13.10;95.90;;;;;;5074285;28;20029;-70
2022/11/30 02:32:55;;;;;;;32.88;18.05;;;13.00;95.90;;;;;;5074228;28;20485;-70
2022/11/30 02:35:29;;;;;;;28.27;17.25;;;13.00;95.80;;;;;;5074034;28;20131;-73
2022/11/30 02:37:56;;;;;;;26.27;16.02;;;13.00;95.80;;;;;;5073663;28;20017;-71
2022/11/30 02:40:22;;;;;;;28.58;17.35;;;13.00;95.70;;;;;;5073680;28;20048;-72
2022/11/30 02:42:50;;;;;;;27.40;16.40;;;13.00;95.90;;;;;;5073156;28;20104;-73
2022/11/30 02:45:47;;;;;;;25.30;15.88;;;13.00;95.90;;;;;;5073762;28;20096;-70
2022/11/30 02:48:17;;;;;;;27.38;17.30;;;13.10;95.80;;;;;;5072462;28;20047;-70
2022/11/30 02:51:02;;;;;;;34.97;18.80;;;13.00;95.80;;;;;;5072432;28;20359;-70
2022/11/30 02:53:28;;;;;;;31.10;19.40;;;12.80;95.80;;;;;;5073356;28;20021;-73
2022/11/30 02:55:54;;;;;;;33.20;18.92;;;12.90;95.70;;;;;;5073798;28;20369;-71
2022/11/30 02:58:20;;;;;;;27.88;17.02;;;12.90;95.70;;;;;;5073100;28;20470;-70
2022/11/30 03:00:46;;;;;;;38.85;21.35;;;13.00;96.00;;;;;;5073523;28;20032;-73
2022/11/30 03:03:11;;;;;;;36.53;19.33;;;12.90;95.80;;;;;;5072975;28;20013;-71
2022/11/30 03:05:37;;;;;;;36.63;19.90;;;12.90;95.70;;;;;;5073188;28;20020;-72
2022/11/30 03:08:02;;;;;;;37.17;20.38;;;13.00;95.70;;;;;;5073040;28;20100;-71
2022/11/30 03:10:28;;;;;;;39.03;22.05;;;13.00;95.80;;;;;;5071818;28;20024;-70
2022/11/30 03:12:57;;;;;;;36.38;20.58;;;13.00;95.80;;;;;;5072790;28;20029;-73
2022/11/30 03:15:23;;;;;;;41.83;22.27;;;12.90;95.70;;;;;;5073084;28;20016;-70
2022/11/30 03:17:49;;;;;;;40.47;21.48;;;12.90;95.80;;;;;;5072885;28;20070;-73
2022/11/30 03:20:14;;;;;;;34.28;19.52;;;12.90;95.80;;;;;;5073009;28;20114;-73
2022/11/30 03:22:40;;;;;;;37.90;20.63;;;12.90;96.00;;;;;;5072842;28;20040;-72
2022/11/30 03:25:06;;;;;;;37.63;20.45;;;12.80;95.80;;;;;;5073062;28;20016;-72
2022/11/30 03:27:31;;;;;;;37.65;20.88;;;12.90;95.70;;;;;;5072417;28;20041;-73
2022/11/30 03:29:57;;;;;;;36.30;19.40;;;12.90;95.80;;;;;;5073002;28;20104;-73
2022/11/30 03:32:22;;;;;;;34.78;20.15;;;12.90;96.00;;;;;;5072885;28;20051;-73
2022/11/30 03:34:48;;;;;;;38.03;19.70;;;12.90;96.00;;;;;;5072750;28;20023;-71
2022/11/30 03:37:13;;;;;;;38.60;19.88;;;12.90;95.80;;;;;;5072952;28;20103;-73
2022/11/30 03:39:39;;;;;;;35.72;19.73;;;12.90;95.90;;;;;;5072787;28;20469;-71
2022/11/30 03:42:04;;;;;;;30.25;19.02;;;12.90;95.90;;;;;;5072706;28;20504;-73
2022/11/30 03:44:30;;;;;;;34.08;18.33;;;12.90;95.90;;;;;;5072655;28;20061;-74
2022/11/30 03:46:55;;;;;;;33.72;19.40;;;12.80;95.80;;;;;;5072769;28;20055;-71
2022/11/30 03:49:21;;;;;;;36.80;19.55;;;12.80;95.80;;;;;;5072623;28;20150;-72
2022/11/30 03:51:46;;;;;;;32.88;18.48;;;12.80;95.80;;;;;;5069963;28;20040;-72
2022/11/30 03:54:12;;;;;;;35.00;20.92;;;12.80;96.20;;;;;;5061055;28;20111;-72
2022/11/30 03:56:38;;;;;;;35.05;20.10;;;12.90;95.90;;;;;;5072623;28;20036;-74
2022/11/30 03:59:03;;;;;;;34.28;19.02;;;12.70;95.80;;;;;;5057461;28;20018;-72
2022/11/30 04:01:29;;;;;;;35.63;19.75;;;12.80;96.10;;;;;;5054410;28;20405;-71
2022/11/30 04:03:54;;;;;;;33.42;20.13;;;12.80;95.90;;;;;;5056730;28;20355;-74
2022/11/30 04:06:20;;;;;;;34.15;20.20;;;12.80;96.00;;;;;;5056732;28;20028;-74
2022/11/30 04:08:46;;;;;;;35.47;20.98;;;12.80;96.10;;;;;;5068764;28;20037;-71
2022/11/30 04:11:12;;;;;;;38.00;21.60;;;12.80;96.10;;;;;;5061311;28;20043;-71
2022/11/30 04:13:39;;;;;;;37.85;20.98;;;12.80;96.10;;;;;;5056313;28;20056;-73
2022/11/30 04:16:06;;;;;;;39.13;23.50;;;12.80;96.10;;;;;;5056386;28;20028;-71
2022/11/30 04:18:33;;;;;;;33.67;20.90;;;12.80;96.10;;;;;;5072156;28;20024;-72
2022/11/30 04:21:00;;;;;;;41.55;23.10;;;12.80;96.20;;;;;;5056158;28;20037;-70
2022/11/30 04:23:29;;;;;;;37.72;22.80;;;12.70;96.20;;;;;;5056147;28;20025;-71
2022/11/30 04:25:56;;;;;;;39.55;21.90;;;12.70;96.30;;;;;;5056759;28;20031;-71
2022/11/30 04:28:22;;;;;;;32.67;21.45;;;12.70;96.30;;;;;;5071813;28;20098;-72
2022/11/30 04:30:47;;;;;;;36.92;22.33;;;12.80;96.40;;;;;;5056181;28;20116;-70
2022/11/30 04:33:14;;;;;;;33.28;20.42;;;12.80;96.40;;;;;;5056181;28;20532;-73
2022/11/30 04:35:47;;;;;;;35.40;21.52;;;12.80;96.40;;;;;;5056484;28;20025;-71
2022/11/30 04:38:12;;;;;;;;;;;12.80;96.30;;;;;;5056343;28;20044;-70
2022/11/30 04:40:39;;;;;;;28.33;18.83;;;12.90;96.20;;;;;;5055752;28;20362;-71
2022/11/30 04:43:05;;;;;;;34.05;21.50;;;12.80;96.20;;;;;;5070872;28;20519;-70
2022/11/30 04:45:30;;;;;;;34.38;21.92;;;12.80;96.30;;;;;;5076923;28;20032;-70
2022/11/30 04:47:56;;;;;;;32.60;19.73;;;12.80;96.20;;;;;;5058767;28;20513;-71
2022/11/30 04:50:22;;;;;;;32.42;20.65;;;12.80;96.40;;;;;;5066415;28;20120;-71
2022/11/30 04:52:48;;;;;;;35.42;21.27;;;12.70;96.30;;;;;;5095693;28;20054;-70
2022/11/30 04:55:13;;;;;;;30.60;19.58;;;12.70;96.30;;;;;;5096450;28;20091;-70
2022/11/30 04:57:39;;;;;;;32.03;20.13;;;12.80;96.40;;;;;;5095851;28;20414;-71
2022/11/30 05:00:05;;;;;;;33.65;19.55;;;12.80;96.40;;;;;;5064724;28;20533;-70
2022/11/30 05:02:31;;;;;;;30.48;19.13;;;12.70;96.50;;;;;;5090798;28;20406;-70
2022/11/30 05:04:56;;;;;;;29.60;19.45;;;12.70;96.40;;;;;;5093505;28;20035;-72
2022/11/30 05:07:22;;;;;;;32.05;20.05;;;12.70;96.40;;;;;;5095120;28;20039;-71
2022/11/30 05:09:48;;;;;;;28.73;19.85;;;12.70;96.40;;;;;;5094264;28;20027;-70
2022/11/30 05:12:13;;;;;;;24.35;18.92;;;12.70;96.40;;;;;;5095028;28;20028;-70
2022/11/30 05:14:39;;;;;;;27.58;19.13;;;12.70;96.50;;;;;;5095470;28;20031;-70
2022/11/30 05:17:04;;;;;;;25.23;18.15;;;12.70;96.50;;;;;;5095609;28;20035;-70
2022/11/30 05:19:30;;;;;;;22.30;16.85;;;13.20;94.80;;;;;;5095406;28;20206;-71
2022/11/30 05:21:55;;;;;;;22.77;16.73;;;13.50;94.00;;;;;;5095069;28;20028;-69
2022/11/30 05:24:21;;;;;;;21.95;17.30;;;13.50;93.70;;;;;;5095599;28;20027;-70
2022/11/30 05:26:46;;;;;;;22.05;17.65;;;13.50;93.70;;;;;;5094898;28;20085;-69
2022/11/30 05:29:12;;;;;;;21.90;16.70;;;13.50;93.70;;;;;;5095432;28;20020;-69
2022/11/30 05:31:38;;;;;;;22.77;16.45;;;13.50;93.70;;;;;;5095477;28;20039;-69
2022/11/30 05:34:04;;;;;;;22.83;17.30;;;13.40;93.70;;;;;;5095462;28;20057;-69
2022/11/30 05:36:29;;;;;;;21.77;17.33;;;13.40;93.70;;;;;;5095044;28;20507;-70
2022/11/30 05:38:55;;;;;;;21.80;15.75;;;13.40;93.70;;;;;;5095069;28;20020;-74
2022/11/30 05:41:20;;;;;;;19.20;15.30;;;13.40;93.80;;;;;;5095034;28;20119;-70
2022/11/30 05:43:46;;;;;;;21.42;16.50;;;13.40;93.80;;;;;;5095000;28;20028;-71
2022/11/30 05:46:11;;;;;;;19.73;14.70;;;13.40;93.80;;;;;;5095356;28;20074;-70
2022/11/30 05:48:37;;;;;;;20.40;15.07;;;13.40;93.90;;;;;;5096152;28;20030;-69
2022/11/30 05:51:11;;;;;;;21.90;16.33;;;13.30;93.90;;;;;;5095006;28;20054;-72
2022/11/30 05:53:37;;;;;;;20.27;16.00;;;13.40;94.00;;;;;;5094870;28;20043;-74
2022/11/30 05:56:06;;;;;;;19.90;15.63;;;13.40;94.00;;;;;;5094623;28;20044;-74
2022/11/30 05:58:32;;;;;;;20.85;16.65;;;13.40;93.90;;;;;;5094807;28;20066;-70
2022/11/30 06:00:57;;;;;;;20.27;15.48;;;13.40;93.90;;;;;;5084206;28;20016;-71
2022/11/30 06:03:23;;;;;;;20.63;15.88;;;13.40;94.00;;;;;;5066391;28;20021;-73
2022/11/30 06:05:50;;;;;;;24.55;16.08;;;13.30;94.00;;;;;;5073973;28;20469;-69
2022/11/30 06:08:16;;;;;;;19.90;16.05;;;13.30;94.10;;;;;;5071678;28;20043;-70
2022/11/30 06:10:42;;;;;;;21.20;16.77;;;13.30;94.10;;;;;;5074033;28;20024;-70
2022/11/30 06:13:08;;;;;;;23.20;17.30;;;13.30;94.20;;;;;;5074059;28;20023;-71
2022/11/30 06:15:38;;;;;;;21.70;17.25;;;13.30;94.20;;;;;;5074311;28;20021;-69
2022/11/30 06:18:04;;;;;;;18.15;15.27;;;13.30;94.30;;;;;;5074188;28;20021;-70
2022/11/30 06:20:30;;;;;;;20.83;16.20;;;13.30;94.30;;;;;;5069559;28;20139;-74
2022/11/30 06:22:57;;;;;;;18.02;15.00;;;13.30;94.20;;;;;;5062405;28;20520;-70
2022/11/30 06:25:24;;;;;;;19.90;14.88;;;13.30;94.30;;;;;;5056826;28;20020;-70
2022/11/30 06:27:50;;;;;;;19.08;14.80;;;13.30;94.30;;;;;;5073549;28;20032;-71
2022/11/30 06:30:15;;;;;;;16.80;14.13;;;13.30;94.40;;;;;;5065575;28;20024;-71
2022/11/30 06:32:47;;;;;;;17.35;13.95;;;13.30;94.40;;;;;;5057311;28;20292;-70
2022/11/30 06:35:13;;;;;;;15.70;13.27;;;13.30;94.40;;;;;;5054811;28;20031;-68
2022/11/30 06:37:39;;;;;;;15.38;12.65;;;13.20;94.40;;;;;;5051828;28;20021;-70
2022/11/30 06:40:06;;;;;;;18.85;14.20;;;13.20;94.40;;;;;;5062567;28;20029;-69
2022/11/30 06:42:32;;;;;;;20.02;15.10;;;13.30;94.40;;;;;;5059976;28;20074;-68
2022/11/30 06:44:58;;;;;;;15.90;13.88;;;13.30;94.50;;;;;;5049750;28;20043;-70
2022/11/30 06:47:24;;;;;;;24.40;16.33;;;13.20;94.40;;;;;;5052859;28;20041;-71
2022/11/30 06:49:50;;;;;;;23.52;17.63;;;13.20;94.50;;;;;;5061413;28;20111;-69
2022/11/30 06:52:16;;;;;;;23.63;18.58;;;13.20;94.50;;;;;;5059311;28;20136;-70
2022/11/30 06:54:41;;;;;;;21.67;18.05;;;13.10;94.40;;;;;;5059753;28;20529;-73
2022/11/30 06:57:07;;;;;;;20.50;14.85;;;13.20;94.30;;;;;;5063775;28;20107;-70
2022/11/30 06:59:32;;;;;;;23.38;18.85;;;13.00;95.20;;;;;;5061226;28;20116;-72
2022/11/30 07:01:58;;;;;;;23.25;17.02;;;12.50;95.40;;;;;;5052659;28;20047;-72
2022/11/30 07:04:24;;;;;;;23.10;18.55;;;12.00;96.10;;;;;;5055922;28;20039;-76
2022/11/30 07:06:49;;;;;;;23.13;18.27;;;12.00;96.20;;;;;;5054687;28;20482;-71
2022/11/30 07:09:15;;;;;;;22.02;18.60;;;12.00;96.40;;;;;;5060891;28;20020;-70
2022/11/30 07:11:40;;;;;;;21.73;16.67;;;12.00;96.50;;;;;;5053523;28;20029;-74
2022/11/30 07:14:06;;;;;;;24.13;18.13;;;12.00;96.30;;;;;;5054454;28;20078;-73
2022/11/30 07:16:32;;;;;;;25.67;17.35;;;12.00;96.20;;;;;;5054503;28;20029;-71
2022/11/30 07:18:57;;;;;;;21.63;17.05;;;12.10;96.20;;;;;;5062834;28;21376;-74
2022/11/30 07:21:23;;;;;;;26.23;19.10;;;12.40;96.40;;;;;;5053564;28;20386;-72
2022/11/30 07:26:33;;;;;;;24.00;18.77;;;12.20;96.10;;;;;;5070402;28;20396;-73
2022/11/30 07:28:58;;;;;;;24.70;18.65;;;12.10;96.40;;;;;;5051734;28;20119;-74
2022/11/30 07:31:29;;;;;;;26.05;19.20;;;12.20;96.30;;;;;;5050935;28;20390;-76
2022/11/30 07:33:56;;;;;;;25.20;18.75;;;12.00;96.50;;;;;;5051152;28;20486;-72
2022/11/30 07:36:24;;;;;;;27.13;20.70;;;11.90;96.60;;;;;;5055914;28;20385;-72
2022/11/30 07:38:50;;;;;;;25.08;18.75;;;11.90;96.90;;;;;;5071567;28;20415;-73
2022/11/30 07:41:15;;;;;;;27.80;19.50;;;12.00;96.80;;;;;;5054811;28;20017;-72
2022/11/30 07:43:41;;;;;;;27.63;19.13;;;11.90;96.80;;;;;;5058827;28;20025;-74
2022/11/30 07:46:10;;;;;;;26.30;18.77;;;12.10;96.60;;;;;;5059005;28;20409;-72
2022/11/30 07:48:35;;;;;;;23.73;18.83;;;12.00;96.50;;;;;;5052452;28;20056;-75
2022/11/30 07:51:07;;;;;;;25.85;19.90;;;12.00;96.50;;;;;;5056136;28;20482;-70
2022/11/30 07:53:32;;;;;;;29.23;20.70;;;12.10;96.50;;;;;;5064759;28;20040;-70
2022/11/30 07:56:03;;;;;;;27.13;19.58;;;12.00;96.50;;;;;;5067254;28;20021;-69
2022/11/30 07:58:30;;;;;;;27.38;18.98;;;11.90;96.60;;;;;;5051796;28;20466;-69
2022/11/30 08:01:03;;;;;;;25.73;19.13;;;11.70;96.80;;;;;;5050522;28;20025;-70
2022/11/30 08:03:29;;;;;;;26.33;18.75;;;11.70;97.10;;;;;;5061925;28;20040;-70
2022/11/30 08:06:00;;;;;;;27.52;19.77;;;11.70;97.10;;;;;;5059298;28;20086;-71
2022/11/30 08:08:31;;;;;;;23.90;19.17;;;11.80;97.00;;;;;;5063797;28;20043;-71
2022/11/30 08:10:57;;;;;;;27.30;20.90;;;11.80;96.80;;;;;;5067525;28;20020;-69
2022/11/30 08:13:23;;;;;;;27.98;19.88;;;11.80;96.80;;;;;;5065201;28;20075;-69
2022/11/30 08:15:49;;;;;;;31.25;23.08;;;11.80;96.90;;;;;;5051972;28;20040;-69
2022/11/30 08:18:15;;;;;;;30.25;24.45;;;11.90;96.80;;;;;;5052618;28;20021;-69
2022/11/30 08:20:40;;;;;;;28.92;23.27;;;11.80;97.00;;;;;;5059850;28;20536;-70
2022/11/30 08:23:06;;;;;;;26.48;19.95;;;12.00;96.80;;;;;;5054258;28;20087;-70
2022/11/30 08:25:33;;;;;;;26.05;19.77;;;12.00;96.70;;;;;;5060415;28;20017;-70
2022/11/30 08:27:59;;;;;;;27.70;19.52;;;12.10;96.60;;;;;;5052043;28;20089;-71
2022/11/30 08:30:25;;;;;;;24.15;19.17;;;12.00;96.70;;;;;;5065387;28;20017;-70
2022/11/30 08:32:50;;;;;;;24.77;18.92;;;11.80;96.70;;;;;;5051967;28;20032;-70
2022/11/30 08:35:16;;;;;;;29.50;19.67;;;11.70;96.90;;;;;;5052337;28;20528;-70
2022/11/30 08:37:42;;;;;;;30.98;21.17;;;11.90;96.90;;;;;;5053247;28;20440;-69
2022/11/30 08:40:08;;;;;;;28.45;19.73;;;12.00;96.70;;;;;;5057568;28;20032;-68
2022/11/30 08:42:33;;;;;;;24.83;19.13;;;11.80;96.80;;;;;;5072087;28;20517;-69
2022/11/30 08:44:59;;;;;;;24.58;19.48;;;11.80;96.90;;;;;;5062240;28;20035;-68
2022/11/30 08:47:24;;;;;;;23.63;19.35;;;11.70;96.90;;;;;;5063240;28;20044;-69
2022/11/30 08:49:50;;;;;;;26.42;19.73;;;11.80;96.80;;;;;;5061636;28;20029;-69
2022/11/30 08:52:15;;;;;;;28.80;20.48;;;11.80;96.70;;;;;;5068677;28;20409;-70
2022/11/30 08:54:44;;;;;;;29.10;20.95;;;11.70;96.80;;;;;;5058269;28;20040;-68
2022/11/30 08:57:10;;;;;;;30.50;20.92;;;11.70;97.00;;;;;;5064274;28;20386;-69
2022/11/30 08:59:35;;;;;;;28.40;21.23;;;11.90;96.80;;;;;;5060416;28;20021;-71
2022/11/30 09:02:01;;;;;;;29.05;20.60;;;11.70;97.10;;;;;;5062284;28;20539;-69
2022/11/30 09:04:27;;;;;;;33.03;21.45;;;11.70;97.40;;;;;;5065023;28;20131;-70
2022/11/30 09:06:52;;;;;;;30.55;21.80;;;11.60;97.40;;;;;;5059375;28;20021;-70
2022/11/30 09:09:18;;;;;;;27.67;20.50;;;11.60;97.70;;;;;;5056227;28;20044;-74
2022/11/30 09:11:43;;;;;;;24.27;18.92;;;11.60;97.70;;;;;;5055303;28;20021;-73
2022/11/30 09:14:09;;;;;;;28.20;20.38;;;11.50;97.60;;;;;;5066052;28;20028;-74
2022/11/30 09:16:35;;;;;;;27.90;21.05;;;11.60;97.60;;;;;;5066669;28;20036;-73
2022/11/30 09:19:00;;;;;;;29.10;22.05;;;11.60;97.50;;;;;;5063920;28;20021;-71
2022/11/30 09:21:26;;;;;;;28.90;21.65;;;11.60;97.70;;;;;;5065901;28;20103;-72
2022/11/30 09:23:54;;;;;;;28.08;20.65;;;11.70;97.40;;;;;;5074875;28;20025;-73
2022/11/30 09:26:22;;;;;;;28.83;21.65;;;11.80;97.50;;;;;;5074749;28;20445;-74
2022/11/30 09:28:48;;;;;;;29.13;21.85;;;11.70;97.70;;;;;;5070475;28;20032;-74
2022/11/30 09:31:16;;;;;;;31.42;23.33;;;11.60;97.60;;;;;;5058188;28;20029;-74
2022/11/30 09:33:42;;;;;;;29.55;22.77;;;11.60;97.60;;;;;;5068036;28;20420;-73
2022/11/30 09:36:13;;;;;;;31.13;23.63;;;11.70;97.40;;;;;;5069140;28;20024;-74
2022/11/30 09:38:41;;;;;;;30.60;21.77;;;11.60;97.50;;;;;;5071702;28;20024;-73
2022/11/30 09:41:22;;;;;;;33.38;24.23;;;11.70;97.70;;;;;;5057761;28;20020;-75
2022/11/30 09:44:04;;;;;;;31.27;22.92;;;11.70;97.50;;;;;;5059472;28;20447;-75
2022/11/30 09:46:36;;;;;;;33.42;23.33;;;11.50;97.60;;;;;;5059032;28;20056;-75
2022/11/30 09:49:08;;;;;;;33.50;24.05;;;11.70;97.60;;;;;;5065640;28;20537;-75
2022/11/30 09:51:48;;;;;;;32.20;23.63;;;11.70;97.60;;;;;;5059978;28;20032;-70
2022/11/30 09:54:19;;;;;;;35.45;24.17;;;11.70;97.90;;;;;;5058748;28;20043;-71
2022/11/30 09:56:45;;;;;;;30.93;24.70;;;11.80;97.80;;;;;;5055052;28;20036;-72
2022/11/30 09:59:20;;;;;;;33.30;24.63;;;11.90;98.00;;;;;;5068200;28;20477;-73
2022/11/30 10:01:47;;;;;;;35.35;21.98;;;11.80;97.70;;;;;;5069650;28;20028;-72
2022/11/30 10:04:26;;;;;;;35.75;26.63;;;12.10;97.60;;;;;;5065469;28;20021;-72
2022/11/30 10:07:30;;;;;;;35.63;25.42;;;12.10;97.20;;;;;;5053032;28;20492;-74
2022/11/30 10:10:17;;;;;;;34.97;25.25;;;11.90;97.60;;;;;;5052403;28;20069;-76
2022/11/30 10:12:57;;;;;;;37.10;26.85;;;11.80;97.60;;;;;;5053647;28;20051;-76
2022/11/30 10:15:25;;;;;;;38.72;25.77;;;11.90;97.60;;;;;;5058406;28;20025;-76
2022/11/30 10:18:33;;;;;;;37.17;26.48;;;12.00;97.60;;;;;;5074364;28;20066;-75
2022/11/30 10:21:26;;;;;;;39.33;26.77;;;12.10;97.80;;;;;;5053228;28;20048;-75
2022/11/30 10:24:12;;;;;;;38.60;26.80;;;12.20;97.50;;;;;;5053655;28;20020;-75
2022/11/30 10:26:44;;;;;;;38.30;27.83;;;12.10;97.90;;;;;;5054672;28;20048;-74
2022/11/30 10:29:27;;;;;;;41.28;28.63;;;12.00;97.60;;;;;;5066966;28;20377;-74
2022/11/30 10:31:57;;;;;;;42.75;29.20;;;12.00;97.90;;;;;;5056026;28;20478;-75
2022/11/30 10:34:34;;;;;;;42.00;28.13;;;12.00;97.90;;;;;;5053942;28;20032;-74
2022/11/30 10:37:16;;;;;;;43.15;29.15;;;11.90;98.00;;;;;;5068111;28;20028;-73
2022/11/30 10:39:57;;;;;;;44.70;29.40;;;12.00;98.00;;;;;;5058656;28;20028;-74
2022/11/30 10:42:33;;;;;;;41.90;29.00;;;12.10;98.00;;;;;;5073334;28;20036;-76
2022/11/30 10:45:11;;;;;;;43.17;30.75;;;12.10;98.10;;;;;;5063049;28;20606;-71
2022/11/30 10:47:45;;;;;;;46.22;32.78;;;12.10;97.90;;;;;;5062508;28;20028;-72
2022/11/30 10:50:14;;;;;;;42.17;29.52;;;12.20;97.90;;;;;;5053014;28;20383;-71
2022/11/30 10:52:45;;;;;;;41.95;30.92;;;12.10;97.80;;;;;;5062551;28;20091;-71
2022/11/30 10:55:23;;;;;;;44.17;29.38;;;12.10;98.00;;;;;;5070774;28;20027;-69
2022/11/30 10:58:02;;;;;;;39.55;29.90;;;12.10;97.90;;;;;;5066278;28;20028;-72
2022/11/30 11:00:28;;;;;;;50.42;35.60;;;12.10;97.80;;;;;;5055554;28;20052;-72
2022/11/30 11:02:54;;;;;;;46.13;37.10;;;12.10;97.70;;;;;;5053674;28;20114;-70
2022/11/30 11:05:25;;;;;;;47.78;31.92;;;12.00;97.80;;;;;;5052987;28;20021;-71
2022/11/30 11:07:56;;;;;;;40.17;28.67;;;12.10;97.70;;;;;;5056206;28;20044;-72
2022/11/30 11:10:35;;;;;;;43.08;31.90;;;12.10;97.60;;;;;;5065188;28;20064;-74
2022/11/30 11:13:01;;;;;;;44.08;30.17;;;12.10;97.60;;;;;;5058382;28;20058;-72
2022/11/30 11:15:30;;;;;;;43.40;29.95;;;12.10;97.60;;;;;;5054895;28;20017;-71
2022/11/30 11:18:27;;;;;;;45.28;32.50;;;12.20;97.60;;;;;;5069070;28;20031;-73
2022/11/30 11:21:19;;;;;;;40.92;30.13;;;12.30;97.70;;;;;;5055797;28;20040;-73
2022/11/30 11:23:48;;;;;;;54.03;39.28;;;12.30;98.20;;;;;;5055154;28;21349;-71
2022/11/30 11:26:26;;;;;;;49.30;34.88;;;12.20;98.70;;;;;;5063654;28;20033;-72
2022/11/30 11:28:54;;;;;;;52.58;33.72;;;12.20;99.10;;;;;;5056990;28;20044;-72
2022/11/30 11:31:32;;;;;;;50.22;34.47;;;12.10;99.90;;;;;;5073520;28;20016;-73
2022/11/30 11:33:58;;;;;;;48.58;33.40;;;12.20;99.90;;;;;;5056413;28;20124;-72
2022/11/30 11:36:29;;;;;;;49.13;34.10;;;12.50;99.30;;;;;;5054158;28;20107;-71
2022/11/30 11:38:56;;;;;;;51.07;34.57;;;12.60;99.20;;;;;;5069387;28;20035;-74
2022/11/30 11:41:33;;;;;;;99.22;68.15;;;12.90;99.10;;;;;;5059249;28;20039;-73
2022/11/30 11:44:04;;;;;;;94.00;62.80;;;12.90;98.90;;;;;;5055194;28;20108;-69
2022/11/30 11:46:33;;;;;;;86.30;56.85;;;12.90;98.80;;;;;;5059064;28;20017;-72
2022/11/30 11:49:17;;;;;;;106.63;68.53;;;12.80;98.80;;;;;;5052855;28;20064;-72
2022/11/30 11:51:44;;;;;;;100.28;65.68;;;12.70;98.90;;;;;;5057125;28;20043;-71
2022/11/30 11:54:26;;;;;;;93.35;61.30;;;12.70;98.90;;;;;;5066683;28;20035;-71
2022/11/30 11:56:55;;;;;;;80.07;50.85;;;12.80;98.90;;;;;;5051126;28;20060;-69
2022/11/30 11:59:48;;;;;;;76.00;50.45;;;12.90;98.70;;;;;;5059746;28;20034;-71
2022/11/30 12:02:33;;;;;;;66.55;43.80;;;13.00;98.60;;;;;;5061773;28;20047;-70
2022/11/30 12:05:05;;;;;;;64.30;41.80;;;13.10;98.40;;;;;;5059443;28;20028;-70
2022/11/30 12:07:41;;;;;;;70.22;43.42;;;13.20;98.40;;;;;;5057167;28;20032;-72
2022/11/30 12:10:18;;;;;;;62.40;41.15;;;13.40;98.70;;;;;;5059383;28;20052;-69
2022/11/30 12:12:44;;;;;;;57.88;37.80;;;13.40;97.80;;;;;;5056299;28;20047;-71
2022/11/30 12:15:14;;;;;;;52.90;37.50;;;13.20;97.40;;;;;;5053754;28;20017;-72
2022/11/30 12:18:17;;;;;;;51.22;35.25;;;13.20;97.70;;;;;;5057348;28;20028;-72
2022/11/30 12:20:56;;;;;;;54.08;37.33;;;13.40;97.70;;;;;;5057491;28;20072;-75
2022/11/30 12:23:56;;;;;;;52.65;32.60;;;13.60;97.30;;;;;;5053569;28;20027;-72
2022/11/30 12:26:47;;;;;;;55.53;34.50;;;13.70;98.10;;;;;;5053737;28;20122;-76
2022/11/30 12:29:50;;;;;;;45.40;32.40;;;13.80;97.80;;;;;;5047910;28;20037;-73
2022/11/30 12:32:24;;;;;;;51.08;32.35;;;14.00;97.10;;;;;;5052861;28;20046;-71
2022/11/30 12:35:08;;;;;;;42.65;29.88;;;14.20;97.20;;;;;;5052903;28;20103;-73
2022/11/30 12:37:48;;;;;;;44.92;30.17;;;14.30;96.80;;;;;;5051402;28;20060;-73
2022/11/30 12:40:32;;;;;;;43.05;28.65;;;14.40;96.90;;;;;;5048248;28;20021;-72
2022/11/30 12:43:19;;;;;;;51.10;30.38;;;14.50;96.70;;;;;;5045924;28;20049;-74